createdAt,value
2019-02-20T00:02:18.629Z,10.80
2019-02-20T00:04:48.287Z,9.93
2019-02-20T00:07:17.966Z,8.58
2019-02-20T00:09:47.631Z,9.03
2019-02-20T00:12:17.563Z,8.10
2019-02-20T00:14:47.266Z,9.53
2019-02-20T00:17:16.926Z,9.87
2019-02-20T00:19:46.593Z,8.60
2019-02-20T00:22:16.263Z,8.83
2019-02-20T00:24:45.931Z,9.13
2019-02-20T00:27:15.621Z,9.45
2019-02-20T00:29:45.259Z,8.73
2019-02-20T00:32:14.938Z,8.18
2019-02-20T00:34:44.869Z,8.80
2019-02-20T00:37:14.578Z,7.45
2019-02-20T00:39:44.393Z,8.80
2019-02-20T00:42:14.048Z,8.58
2019-02-20T00:44:59.228Z,8.40
2019-02-20T00:47:37.632Z,7.80
2019-02-20T00:50:07.775Z,8.73
2019-02-20T00:53:02.968Z,8.70
2019-02-20T00:55:32.632Z,8.63
2019-02-20T00:58:02.548Z,8.47
2019-02-20T01:00:32.215Z,7.97
2019-02-20T01:03:02.191Z,9.83
2019-02-20T01:05:31.991Z,8.30
2019-02-20T01:08:01.731Z,8.77
2019-02-20T01:10:31.421Z,8.83
2019-02-20T01:13:01.075Z,8.27
2019-02-20T01:15:30.930Z,8.83
2019-02-20T01:18:00.600Z,7.30
2019-02-20T01:20:30.263Z,8.07
2019-02-20T01:23:00.514Z,8.43
2019-02-20T01:25:30.203Z,7.90
2019-02-20T01:28:00.223Z,8.25
2019-02-20T01:30:30.004Z,8.40
2019-02-20T01:32:59.684Z,7.97
2019-02-20T01:35:29.373Z,8.63
2019-02-20T01:37:59.015Z,7.97
2019-02-20T01:40:28.684Z,7.60
2019-02-20T01:42:58.336Z,7.30
2019-02-20T01:45:28.076Z,8.70
2019-02-20T01:47:57.790Z,8.93
2019-02-20T01:50:27.444Z,8.40
2019-02-20T01:52:57.181Z,9.27
2019-02-20T01:55:26.843Z,8.00
2019-02-20T01:57:56.528Z,8.33
2019-02-20T02:00:26.341Z,8.70
2019-02-20T02:02:56.109Z,8.27
2019-02-20T02:05:25.870Z,7.90
2019-02-20T02:07:55.864Z,8.47
2019-02-20T02:10:25.522Z,8.57
2019-02-20T02:12:55.368Z,7.90
2019-02-20T02:15:25.068Z,8.20
2019-02-20T02:17:54.732Z,7.33
2019-02-20T02:20:24.386Z,8.00
2019-02-20T02:22:54.301Z,8.20
2019-02-20T02:25:23.967Z,8.93
2019-02-20T02:27:53.716Z,9.10
2019-02-20T02:30:23.401Z,10.03
2019-02-20T02:32:53.069Z,9.40
2019-02-20T02:35:23.147Z,9.57
2019-02-20T02:37:52.810Z,9.30
2019-02-20T02:40:22.604Z,9.33
2019-02-20T02:42:53.253Z,10.67
2019-02-20T02:45:22.959Z,9.05
2019-02-20T02:47:52.605Z,10.27
2019-02-20T02:50:22.299Z,9.50
2019-02-20T02:52:52.161Z,8.23
2019-02-20T02:55:21.888Z,10.63
2019-02-20T02:57:51.550Z,9.33
2019-02-20T03:00:21.490Z,10.47
2019-02-20T03:02:51.187Z,10.10
2019-02-20T03:05:21.212Z,9.83
2019-02-20T03:07:51.124Z,10.60
2019-02-20T03:10:20.810Z,9.93
2019-02-20T03:12:50.895Z,10.17
2019-02-20T03:15:20.583Z,10.43
2019-02-20T03:17:50.313Z,11.07
2019-02-20T03:20:20.012Z,10.20
2019-02-20T03:22:49.677Z,11.03
2019-02-20T03:25:19.365Z,11.17
2019-02-20T03:27:49.033Z,10.93
2019-02-20T03:30:18.710Z,11.83
2019-02-20T03:32:48.627Z,12.17
2019-02-20T03:35:18.285Z,13.60
2019-02-20T03:37:48.301Z,12.28
2019-02-20T03:40:17.987Z,12.30
2019-02-20T03:42:47.660Z,12.73
2019-02-20T03:45:17.654Z,13.80
2019-02-20T03:47:47.303Z,13.33
2019-02-20T03:50:16.991Z,13.50
2019-02-20T03:52:46.845Z,13.83
2019-02-20T03:55:16.697Z,13.45
2019-02-20T03:57:46.632Z,13.80
2019-02-20T04:00:16.394Z,14.00
2019-02-20T04:02:46.061Z,13.40
2019-02-20T04:05:15.881Z,15.90
2019-02-20T04:07:45.543Z,14.77
2019-02-20T04:10:15.243Z,16.97
2019-02-20T04:12:44.911Z,15.13
2019-02-20T04:15:14.664Z,15.93
2019-02-20T04:17:44.410Z,14.57
2019-02-20T04:20:14.079Z,16.27
2019-02-20T04:22:43.749Z,16.33
2019-02-20T04:25:13.413Z,16.63
2019-02-20T04:27:43.081Z,17.57
2019-02-20T04:30:13.413Z,16.60
2019-02-20T04:32:43.341Z,17.57
2019-02-20T04:35:13.097Z,17.73
2019-02-20T04:37:42.768Z,16.80
2019-02-20T04:40:12.762Z,17.73
2019-02-20T04:42:42.424Z,17.63
2019-02-20T04:45:12.182Z,17.25
2019-02-20T04:47:41.922Z,17.47
2019-02-20T04:50:11.685Z,16.63
2019-02-20T04:52:41.361Z,17.33
2019-02-20T04:55:11.700Z,16.55
2019-02-20T04:57:41.357Z,17.90
2019-02-20T05:00:12.385Z,17.27
2019-02-20T05:02:42.056Z,17.70
2019-02-20T05:05:11.805Z,17.30
2019-02-20T05:07:41.475Z,16.60
2019-02-20T05:10:11.387Z,17.60
2019-02-20T05:12:41.055Z,18.17
2019-02-20T05:15:10.875Z,18.63
2019-02-20T05:17:40.823Z,17.43
2019-02-20T05:20:10.574Z,17.50
2019-02-20T05:22:40.239Z,16.40
2019-02-20T05:25:10.906Z,17.60
2019-02-20T05:27:40.567Z,17.17
2019-02-20T05:30:10.491Z,17.40
2019-02-20T05:32:40.171Z,17.20
2019-02-20T05:35:09.905Z,18.00
2019-02-20T05:37:39.778Z,16.50
2019-02-20T05:40:09.582Z,17.77
2019-02-20T05:42:39.336Z,15.63
2019-02-20T05:45:09.045Z,16.60
2019-02-20T05:47:38.731Z,16.57
2019-02-20T05:50:08.677Z,17.70
2019-02-20T05:52:38.358Z,15.60
2019-02-20T05:55:08.196Z,17.33
2019-02-20T05:57:37.901Z,17.07
2019-02-20T06:00:08.730Z,16.87
2019-02-20T06:02:38.399Z,16.50
2019-02-20T06:05:08.291Z,16.87
2019-02-20T06:07:38.350Z,16.53
2019-02-20T06:10:09.239Z,18.37
2019-02-20T06:12:38.907Z,18.48
2019-02-20T06:15:09.037Z,18.50
2019-02-20T06:17:39.004Z,17.87
2019-02-20T06:20:09.118Z,16.43
2019-02-20T06:22:39.030Z,16.20
2019-02-20T06:25:09.153Z,17.57
2019-02-20T06:27:38.789Z,16.83
2019-02-20T06:30:09.389Z,16.37
2019-02-20T06:32:39.061Z,17.30
2019-02-20T06:35:08.828Z,16.90
2019-02-20T06:37:38.761Z,16.90
2019-02-20T06:40:09.083Z,16.33
2019-02-20T06:42:38.840Z,17.47
2019-02-20T06:45:09.015Z,17.20
2019-02-20T06:47:38.938Z,17.00
2019-02-20T06:50:08.710Z,16.80
2019-02-20T06:52:38.638Z,16.87
2019-02-20T06:55:08.930Z,15.77
2019-02-20T06:57:38.603Z,16.37
2019-02-20T07:00:09.809Z,16.17
2019-02-20T07:02:39.480Z,15.53
2019-02-20T07:05:44.508Z,16.47
2019-02-20T07:08:50.864Z,15.90
2019-02-20T07:11:58.686Z,16.23
2019-02-20T07:14:42.250Z,16.33
2019-02-20T07:17:40.365Z,15.88
2019-02-20T07:20:41.743Z,15.75
2019-02-20T07:23:37.817Z,15.72
2019-02-20T07:26:19.863Z,15.23
2019-02-20T07:29:15.405Z,15.70
2019-02-20T07:31:46.054Z,16.17
2019-02-20T07:34:16.117Z,16.03
2019-02-20T07:36:45.818Z,15.43
2019-02-20T07:39:15.564Z,16.90
2019-02-20T07:41:45.255Z,15.87
2019-02-20T07:44:15.045Z,15.40
2019-02-20T07:46:44.801Z,15.72
2019-02-20T07:49:14.801Z,16.05
2019-02-20T07:51:44.522Z,16.77
2019-02-20T07:54:14.155Z,16.00
2019-02-20T07:56:43.845Z,15.97
2019-02-20T07:59:13.523Z,16.30
2019-02-20T08:01:43.416Z,16.10
2019-02-20T08:04:13.361Z,15.20
2019-02-20T08:06:43.018Z,15.20
2019-02-20T08:09:14.314Z,16.53
2019-02-20T08:11:43.983Z,15.03
2019-02-20T08:14:13.686Z,15.83
2019-02-20T08:16:52.026Z,14.13
2019-02-20T08:19:14.733Z,13.73
2019-02-20T08:21:44.425Z,15.37
2019-02-20T08:24:14.267Z,13.75
2019-02-20T08:26:43.940Z,14.37
2019-02-20T08:29:13.718Z,14.47
2019-02-20T08:31:43.396Z,13.60
2019-02-20T08:34:13.164Z,14.83
2019-02-20T08:36:42.881Z,12.17
2019-02-20T08:39:12.551Z,13.90
2019-02-20T08:41:42.469Z,12.80
2019-02-20T08:44:12.470Z,14.17
2019-02-20T08:46:42.187Z,13.43
2019-02-20T08:49:11.869Z,13.37
2019-02-20T08:51:41.680Z,12.87
2019-02-20T08:54:11.365Z,12.93
2019-02-20T08:56:41.307Z,13.13
2019-02-20T08:59:11.210Z,12.87
2019-02-20T09:01:40.890Z,12.45
2019-02-20T09:04:10.564Z,13.73
2019-02-20T09:06:40.566Z,13.13
2019-02-20T09:09:10.559Z,13.20
2019-02-20T09:11:40.509Z,11.93
2019-02-20T09:14:11.116Z,12.73
2019-02-20T09:16:41.041Z,13.10
2019-02-20T09:19:10.976Z,11.57
2019-02-20T09:21:40.672Z,12.43
2019-02-20T09:24:10.445Z,11.95
2019-02-20T09:26:40.122Z,11.90
2019-02-20T09:29:09.980Z,11.67
2019-02-20T09:31:39.640Z,11.53
2019-02-20T09:34:09.577Z,11.87
2019-02-20T09:36:39.252Z,10.37
2019-02-20T09:39:34.797Z,11.37
2019-02-20T09:42:06.419Z,10.87
2019-02-20T09:44:43.541Z,10.50
2019-02-20T09:47:13.782Z,11.20
2019-02-20T09:49:43.561Z,11.03
2019-02-20T09:52:13.313Z,11.15
2019-02-20T09:54:42.989Z,10.33
2019-02-20T09:57:12.894Z,10.55
2019-02-20T09:59:42.768Z,11.90
2019-02-20T10:02:12.687Z,10.38
2019-02-20T10:04:42.349Z,10.40
2019-02-20T10:07:12.324Z,10.98
2019-02-20T10:09:42.000Z,10.37
2019-02-20T10:12:11.702Z,10.23
2019-02-20T10:14:42.543Z,10.43
2019-02-20T10:17:12.846Z,10.10
2019-02-20T10:19:42.669Z,12.07
2019-02-20T10:22:12.349Z,11.20
2019-02-20T10:24:42.079Z,8.80
2019-02-20T10:27:12.735Z,9.73
2019-02-20T10:29:42.565Z,9.83
2019-02-20T10:32:12.970Z,9.43
2019-02-20T10:34:42.636Z,9.27
2019-02-20T10:37:12.410Z,9.90
2019-02-20T10:39:42.101Z,8.77
2019-02-20T10:42:11.770Z,8.23
2019-02-20T10:44:43.494Z,8.90
2019-02-20T10:47:13.199Z,9.95
2019-02-20T10:49:43.885Z,9.57
2019-02-20T10:52:13.538Z,9.20
2019-02-20T10:54:45.643Z,9.03
2019-02-20T10:57:15.654Z,9.47
2019-02-20T10:59:45.446Z,8.50
2019-02-20T11:02:15.486Z,8.70
2019-02-20T11:04:45.165Z,7.70
2019-02-20T11:07:14.858Z,8.23
2019-02-20T11:09:46.291Z,8.63
2019-02-20T11:12:15.969Z,8.37
2019-02-20T11:14:45.924Z,8.13
2019-02-20T11:17:15.605Z,8.60
2019-02-20T11:19:45.364Z,8.97
2019-02-20T11:22:15.046Z,7.90
2019-02-20T11:24:44.707Z,7.50
2019-02-20T11:27:14.369Z,8.17
2019-02-20T11:29:44.073Z,8.33
2019-02-20T11:32:13.745Z,7.57
2019-02-20T11:34:43.418Z,7.73
2019-02-20T11:37:13.207Z,7.47
2019-02-20T11:39:43.113Z,7.47
2019-02-20T11:42:12.794Z,8.10
2019-02-20T11:44:42.494Z,7.93
2019-02-20T11:47:12.613Z,6.83
2019-02-20T11:49:42.283Z,6.97
2019-02-20T11:52:12.370Z,6.87
2019-02-20T11:54:42.064Z,7.47
2019-02-20T11:57:13.991Z,7.73
2019-02-20T11:59:43.788Z,7.40
2019-02-20T12:02:13.778Z,8.30
2019-02-20T12:04:43.777Z,7.20
2019-02-20T12:07:13.517Z,6.63
2019-02-20T12:09:45.352Z,7.63
2019-02-20T12:12:16.028Z,8.40
2019-02-20T12:14:45.706Z,7.70
2019-02-20T12:17:15.436Z,8.20
2019-02-20T12:19:45.523Z,8.57
2019-02-20T12:22:15.195Z,8.83
2019-02-20T12:24:44.922Z,8.17
2019-02-20T12:27:14.584Z,8.45
2019-02-20T12:29:44.291Z,9.20
2019-02-20T12:32:14.135Z,9.00
2019-02-20T12:34:43.806Z,8.50
2019-02-20T12:37:13.573Z,8.83
2019-02-20T12:39:44.042Z,10.47
2019-02-20T12:42:13.803Z,10.80
2019-02-20T12:44:45.651Z,10.37
2019-02-20T12:47:15.494Z,10.32
2019-02-20T12:49:46.366Z,9.97
2019-02-20T12:52:17.131Z,11.10
2019-02-20T12:54:46.818Z,10.87
2019-02-20T12:57:16.595Z,10.08
2019-02-20T12:59:47.428Z,9.63
2019-02-20T13:02:17.103Z,10.50
2019-02-20T13:04:46.927Z,9.27
2019-02-20T13:07:17.720Z,9.45
2019-02-20T13:09:47.492Z,11.00
2019-02-20T13:12:17.242Z,11.40
2019-02-20T13:14:46.926Z,11.43
2019-02-20T13:17:16.853Z,9.65
2019-02-20T13:19:46.870Z,11.73
2019-02-20T13:22:16.842Z,10.33
2019-02-20T13:24:46.552Z,10.60
2019-02-20T13:27:22.503Z,9.60
2019-02-20T13:29:47.614Z,9.43
2019-02-20T13:32:17.932Z,9.93
2019-02-20T13:34:47.614Z,10.60
2019-02-20T13:37:17.463Z,10.00
2019-02-20T13:39:47.142Z,10.27
2019-02-20T13:42:18.393Z,12.05
2019-02-20T13:44:48.089Z,11.57
2019-02-20T13:47:18.039Z,10.87
2019-02-20T13:49:47.734Z,12.73
2019-02-20T13:52:17.664Z,11.73
2019-02-20T13:54:47.867Z,12.60
2019-02-20T13:57:18.382Z,11.70
2019-02-20T13:59:48.058Z,12.97
2019-02-20T14:02:17.763Z,12.40
2019-02-20T14:04:47.450Z,11.93
2019-02-20T14:07:17.139Z,11.53
2019-02-20T14:09:46.824Z,11.77
2019-02-20T14:12:16.869Z,11.70
2019-02-20T14:14:47.117Z,12.13
2019-02-20T14:17:16.796Z,12.28
2019-02-20T14:19:46.556Z,13.33
2019-02-20T14:22:16.252Z,12.90
2019-02-20T14:24:45.928Z,12.83
2019-02-20T14:27:17.345Z,13.10
2019-02-20T14:29:47.066Z,12.90
2019-02-20T14:32:16.754Z,12.35
2019-02-20T14:34:47.202Z,12.27
2019-02-20T14:37:16.870Z,11.28
2019-02-20T14:39:46.557Z,11.33
2019-02-20T14:42:16.793Z,11.57
2019-02-20T14:44:46.811Z,12.13
2019-02-20T14:47:17.462Z,11.15
2019-02-20T14:49:47.248Z,11.63
2019-02-20T14:52:18.633Z,11.00
2019-02-20T14:54:48.375Z,11.67
2019-02-20T14:57:19.869Z,10.58
2019-02-20T14:59:49.692Z,9.40
2019-02-20T15:02:19.753Z,10.48
2019-02-20T15:04:49.455Z,11.20
2019-02-20T15:07:19.132Z,10.53
2019-02-20T15:09:48.832Z,10.93
2019-02-20T15:12:19.821Z,10.08
2019-02-20T15:14:49.520Z,11.13
2019-02-20T15:17:19.190Z,11.13
2019-02-20T15:19:48.881Z,11.73
2019-02-20T15:22:18.569Z,8.97
2019-02-20T15:24:48.334Z,10.27
2019-02-20T15:27:19.247Z,10.57
2019-02-20T15:29:49.966Z,10.00
2019-02-20T15:32:19.730Z,10.72
2019-02-20T15:34:49.409Z,12.03
2019-02-20T15:37:19.340Z,11.77
2019-02-20T15:39:49.293Z,11.53
2019-02-20T15:42:19.229Z,10.23
2019-02-20T15:44:48.960Z,10.87
2019-02-20T15:47:18.629Z,10.53
2019-02-20T15:49:48.324Z,11.70
2019-02-20T15:52:18.238Z,11.40
2019-02-20T15:54:48.202Z,10.73
2019-02-20T15:57:18.149Z,10.67
2019-02-20T15:59:47.839Z,10.70
2019-02-20T16:02:23.299Z,10.67
2019-02-20T16:04:58.262Z,11.00
2019-02-20T16:07:27.947Z,11.30
2019-02-20T16:09:57.902Z,11.47
2019-02-20T16:12:28.064Z,10.97
2019-02-20T16:14:57.888Z,11.57
2019-02-20T16:17:37.908Z,11.23
2019-02-20T16:20:08.979Z,10.47
2019-02-20T16:22:38.982Z,10.07
2019-02-20T16:25:10.558Z,10.70
2019-02-20T16:27:46.743Z,10.53
2019-02-20T16:30:12.450Z,10.53
2019-02-20T16:32:43.220Z,9.78
2019-02-20T16:35:13.263Z,10.20
2019-02-20T16:37:42.942Z,10.10
2019-02-20T16:40:13.484Z,10.23
2019-02-20T16:42:43.473Z,10.17
2019-02-20T16:45:21.839Z,9.97
2019-02-20T16:47:52.218Z,9.93
2019-02-20T16:50:21.998Z,10.67
2019-02-20T16:52:51.896Z,9.23
2019-02-20T16:55:22.707Z,11.23
2019-02-20T16:57:56.628Z,10.03
2019-02-20T17:00:24.594Z,10.53
2019-02-20T17:02:54.638Z,9.50
2019-02-20T17:05:24.324Z,10.33
2019-02-20T17:07:54.158Z,10.47
2019-02-20T17:10:23.969Z,9.90
2019-02-20T17:12:53.650Z,10.03
2019-02-20T17:15:23.481Z,9.87
2019-02-20T17:17:53.512Z,10.43
2019-02-20T17:20:23.211Z,11.17
2019-02-20T17:22:53.174Z,11.30
2019-02-20T17:25:23.350Z,9.73
2019-02-20T17:28:05.310Z,9.67
2019-02-20T17:30:28.424Z,9.83
2019-02-20T17:32:58.128Z,10.98
2019-02-20T17:35:28.128Z,10.60
2019-02-20T17:37:57.953Z,10.93
2019-02-20T17:40:27.707Z,12.18
2019-02-20T17:42:57.386Z,11.87
2019-02-20T17:45:28.461Z,11.70
2019-02-20T17:47:58.428Z,11.90
2019-02-20T17:50:28.203Z,11.77
2019-02-20T17:52:57.922Z,14.87
2019-02-20T17:55:27.597Z,18.00
2019-02-20T17:57:57.351Z,24.60
2019-02-20T18:00:28.927Z,22.40
2019-02-20T18:02:58.726Z,15.87
2019-02-20T18:05:28.482Z,11.43
2019-02-20T18:07:58.273Z,10.57
2019-02-20T18:10:28.851Z,11.17
2019-02-20T18:12:58.537Z,11.03
2019-02-20T18:15:28.217Z,11.47
2019-02-20T18:17:57.969Z,10.20
2019-02-20T18:20:27.658Z,10.47
2019-02-20T18:22:57.414Z,11.87
2019-02-20T18:25:27.618Z,10.90
2019-02-20T18:27:59.499Z,12.97
2019-02-20T18:30:28.758Z,13.53
2019-02-20T18:32:58.422Z,13.93
2019-02-20T18:35:28.444Z,14.10
2019-02-20T18:37:58.154Z,14.60
2019-02-20T18:40:27.818Z,13.37
2019-02-20T18:42:57.502Z,12.37
2019-02-20T18:45:27.618Z,13.27
2019-02-20T18:47:57.306Z,12.70
2019-02-20T18:50:27.870Z,12.33
2019-02-20T18:53:01.195Z,13.43
2019-02-20T18:55:31.055Z,12.73
2019-02-20T18:58:00.723Z,12.87
2019-02-20T19:00:30.565Z,13.23
2019-02-20T19:03:00.413Z,13.23
2019-02-20T19:05:30.279Z,13.07
2019-02-20T19:08:00.018Z,13.67
2019-02-20T19:10:33.821Z,15.17
2019-02-20T19:13:40.212Z,14.53
2019-02-20T19:16:46.552Z,12.90
2019-02-20T19:19:39.826Z,13.58
2019-02-20T19:22:37.239Z,14.60
2019-02-20T19:25:49.517Z,13.77
2019-02-20T19:28:24.227Z,13.70
2019-02-20T19:31:12.077Z,13.87
2019-02-20T19:33:58.021Z,15.00
2019-02-20T19:37:11.853Z,14.90
2019-02-20T19:40:25.131Z,14.87
2019-02-20T19:43:14.947Z,15.70
2019-02-20T19:46:16.457Z,13.93
2019-02-20T19:48:57.297Z,14.37
2019-02-20T19:52:00.772Z,15.30
2019-02-20T19:54:42.179Z,14.83
2019-02-20T19:57:56.419Z,14.68
2019-02-20T20:01:21.520Z,14.30
2019-02-20T20:04:09.630Z,14.70
2019-02-20T20:07:16.095Z,16.07
2019-02-20T20:10:26.757Z,15.67
2019-02-20T20:13:22.965Z,17.17
2019-02-20T20:16:26.322Z,16.30
2019-02-20T20:19:24.065Z,16.13
2019-02-20T20:22:24.092Z,15.37
2019-02-20T20:25:07.001Z,15.43
2019-02-20T20:28:21.892Z,15.90
2019-02-20T20:31:16.705Z,17.23
2019-02-20T20:34:02.931Z,16.20
2019-02-20T20:37:00.897Z,15.50
2019-02-20T20:40:04.360Z,16.63
2019-02-20T20:43:01.594Z,16.97
2019-02-20T20:46:06.861Z,16.20
2019-02-20T20:49:05.587Z,16.17
2019-02-20T20:52:23.061Z,16.67
2019-02-20T20:55:22.979Z,17.83
2019-02-20T20:58:20.128Z,16.77
2019-02-20T21:01:18.249Z,16.33
2019-02-20T21:04:29.701Z,15.47
2019-02-20T21:07:22.433Z,15.23
2019-02-20T21:10:31.560Z,14.27
2019-02-20T21:13:29.062Z,14.80
2019-02-20T21:16:27.626Z,14.83
2019-02-20T21:19:29.730Z,16.00
2019-02-20T21:22:24.576Z,16.80
2019-02-20T21:25:22.129Z,15.43
2019-02-20T21:28:24.470Z,15.73
2019-02-20T21:31:33.998Z,14.60
2019-02-20T21:34:38.857Z,15.10
2019-02-20T21:37:45.246Z,15.70
2019-02-20T21:40:44.084Z,15.13
2019-02-20T21:44:01.106Z,15.17
2019-02-20T21:47:09.503Z,16.33
2019-02-20T21:50:28.276Z,15.03
2019-02-20T21:53:28.223Z,15.13
2019-02-20T21:56:37.808Z,15.07
2019-02-20T21:59:38.848Z,17.80
2019-02-20T22:02:32.075Z,17.40
2019-02-20T22:05:31.311Z,17.20
2019-02-20T22:08:46.768Z,20.05
2019-02-20T22:12:02.796Z,19.20
2019-02-20T22:15:11.885Z,19.63
2019-02-20T22:18:03.477Z,19.97
2019-02-20T22:20:58.886Z,19.50
2019-02-20T22:23:52.261Z,18.57
2019-02-20T22:26:57.511Z,18.57
2019-02-20T22:30:05.632Z,15.90
2019-02-20T22:32:41.929Z,17.80
2019-02-20T22:35:58.197Z,17.17
2019-02-20T22:39:06.289Z,16.47
2019-02-20T22:42:15.748Z,15.43
2019-02-20T22:45:24.300Z,16.43
2019-02-20T22:48:27.960Z,14.13
2019-02-20T22:51:24.557Z,14.50
2019-02-20T22:54:27.444Z,15.73
2019-02-20T22:57:33.390Z,14.77
2019-02-20T23:00:57.288Z,13.73
2019-02-20T23:03:58.227Z,16.27
2019-02-20T23:07:13.725Z,17.55
2019-02-20T23:10:24.563Z,16.87
2019-02-20T23:13:30.201Z,17.33
2019-02-20T23:16:00.412Z,17.57
2019-02-20T23:18:30.112Z,19.17
2019-02-20T23:20:59.815Z,18.57
2019-02-20T23:23:29.501Z,20.60
2019-02-20T23:25:59.440Z,19.57
2019-02-20T23:28:30.999Z,17.25
2019-02-20T23:31:00.494Z,18.00
2019-02-20T23:33:30.282Z,16.60
2019-02-20T23:36:00.113Z,15.97
2019-02-20T23:38:30.265Z,16.37
2019-02-20T23:41:00.125Z,14.90
2019-02-20T23:43:31.091Z,16.20
2019-02-20T23:46:01.008Z,16.03
2019-02-20T23:48:31.205Z,15.43
2019-02-20T23:51:00.882Z,16.50
2019-02-20T23:53:30.645Z,16.70
2019-02-20T23:56:00.321Z,16.23
2019-02-20T23:58:30.009Z,16.70
